Time,TemperatureF,DewpointF,PressureIn,WindDirection,WindDirectionDegrees,WindSpeedMPH,WindSpeedGustMPH,Humidity,HourlyPrecipIn,Conditions,Clouds,dailyrainin,SoftwareType,DateUTC
2013-03-24 00:00:00,66.8,65.6,29.63,North,360,5.0,14.0,96,0.00,,SKC,0.03,VWS V14.00,2013-03-24 05:00:00,
2013-03-24 00:05:00,66.4,65.2,29.63,NNW,346,5.0,10.0,96,0.00,,SKC,0.00,VWS V14.00,2013-03-24 05:05:00,
2013-03-24 00:10:00,66.3,65.1,29.63,North,5,8.0,11.0,96,0.00,,SKC,0.00,VWS V14.00,2013-03-24 05:10:00,
2013-03-24 00:15:00,66.1,64.9,29.64,North,5,7.0,12.0,96,0.00,,SKC,0.00,VWS V14.00,2013-03-24 05:15:00,
2013-03-24 00:20:00,65.6,64.1,29.64,North,5,7.0,13.0,95,0.00,,SKC,0.00,VWS V14.00,2013-03-24 05:20:00,
2013-03-24 00:25:00,64.7,62.9,29.64,NNW,329,11.0,13.0,94,0.00,,SKC,0.00,VWS V14.00,2013-03-24 05:25:00,
2013-03-24 00:30:00,64.1,62.3,29.64,North,9,7.0,14.0,94,0.00,,SKC,0.00,VWS V14.00,2013-03-24 05:30:00,
2013-03-24 00:35:00,63.9,62.1,29.64,NNE,17,5.0,14.0,94,0.00,,SKC,0.00,VWS V14.00,2013-03-24 05:35:00,
2013-03-24 00:40:00,63.7,62.0,29.64,NNE,17,5.0,14.0,94,0.00,,SKC,0.00,VWS V14.00,2013-03-24 05:40:00,
2013-03-24 00:45:00,63.6,62.2,29.64,NNE,20,4.0,14.0,95,0.00,,SKC,0.00,VWS V14.00,2013-03-24 05:45:00,
2013-03-24 00:50:00,63.4,61.7,29.64,NNE,13,9.0,14.0,94,0.00,,SKC,0.00,VWS V14.00,2013-03-24 05:50:00,
2013-03-24 00:55:00,62.8,61.0,29.64,NNE,12,6.0,14.0,94,0.00,,SKC,0.00,VWS V14.00,2013-03-24 05:55:00,
2013-03-24 01:00:00,62.3,60.2,29.63,NNE,22,4.0,14.0,93,0.00,,SKC,0.00,VWS V14.00,2013-03-24 06:00:00,
2013-03-24 01:05:00,61.9,60.2,29.63,NNE,17,4.0,7.0,94,0.00,,SKC,0.00,VWS V14.00,2013-03-24 06:05:00,
2013-03-24 01:10:00,61.6,59.9,29.64,NNE,28,5.0,8.0,94,0.00,,SKC,0.00,VWS V14.00,2013-03-24 06:10:00,
2013-03-24 01:15:00,61.5,59.8,29.64,NNE,24,4.0,8.0,94,0.00,,SKC,0.00,VWS V14.00,2013-03-24 06:15:00,
2013-03-24 01:20:00,61.5,60.1,29.64,NNE,24,5.0,8.0,95,0.00,,SKC,0.00,VWS V14.00,2013-03-24 06:20:00,
2013-03-24 01:25:00,61.4,60.0,29.64,NNE,22,5.0,8.0,95,0.00,,SKC,0.00,VWS V14.00,2013-03-24 06:25:00,
2013-03-24 01:30:00,61.3,59.6,29.64,NNE,28,7.0,8.0,94,0.00,,SKC,0.00,VWS V14.00,2013-03-24 06:30:00,
2013-03-24 01:35:00,61.2,59.5,29.64,NNE,23,0.0,8.0,94,0.00,,SKC,0.00,VWS V14.00,2013-03-24 06:35:00,
2013-03-24 01:40:00,61.1,59.4,29.64,North,360,4.0,10.0,94,0.00,,SKC,0.00,VWS V14.00,2013-03-24 06:40:00,
2013-03-24 01:45:00,61.0,59.3,29.64,NNE,15,4.0,10.0,94,0.00,,SKC,0.00,VWS V14.00,2013-03-24 06:45:00,
2013-03-24 01:50:00,60.9,59.2,29.64,NNE,12,4.0,10.0,94,0.00,,SKC,0.00,VWS V14.00,2013-03-24 06:50:00,
2013-03-24 01:55:00,60.7,59.0,29.64,NE,40,4.0,10.0,94,0.00,,SKC,0.00,VWS V14.00,2013-03-24 06:55:00,
2013-03-24 02:00:00,60.5,58.8,29.63,NE,41,2.0,10.0,94,0.00,,SKC,0.00,VWS V14.00,2013-03-24 07:00:00,
2013-03-24 02:05:00,60.4,58.7,29.64,NE,41,1.0,5.0,94,0.00,,SKC,0.00,VWS V14.00,2013-03-24 07:05:00,
2013-03-24 02:10:00,60.3,58.6,29.64,NE,41,1.0,5.0,94,0.00,,SKC,0.00,VWS V14.00,2013-03-24 07:10:00,
2013-03-24 02:15:00,60.2,58.5,29.64,NE,41,4.0,5.0,94,0.00,,SKC,0.00,VWS V14.00,2013-03-24 07:15:00,
2013-03-24 02:20:00,60.2,58.5,29.64,NE,41,1.0,5.0,94,0.00,,SKC,0.00,VWS V14.00,2013-03-24 07:20:00,
2013-03-24 02:25:00,60.2,58.8,29.64,NE,41,2.0,5.0,95,0.00,,SKC,0.00,VWS V14.00,2013-03-24 07:25:00,
2013-03-24 02:30:00,60.2,58.8,29.64,NE,41,0.0,5.0,95,0.00,,SKC,0.00,VWS V14.00,2013-03-24 07:30:00,
2013-03-24 02:35:00,60.1,58.7,29.64,NE,41,2.0,5.0,95,0.00,,SKC,0.00,VWS V14.00,2013-03-24 07:35:00,
2013-03-24 02:40:00,60.1,58.4,29.64,NE,41,1.0,5.0,94,0.00,,SKC,0.00,VWS V14.00,2013-03-24 07:40:00,
2013-03-24 02:45:00,60.0,58.3,29.64,NE,41,0.0,5.0,94,0.00,,SKC,0.00,VWS V14.00,2013-03-24 07:45:00,
2013-03-24 02:50:00,60.0,58.6,29.64,NE,41,1.0,5.0,95,0.00,,SKC,0.00,VWS V14.00,2013-03-24 07:50:00,
2013-03-24 02:55:00,60.1,58.7,29.64,NE,41,0.0,5.0,95,0.00,,SKC,0.00,VWS V14.00,2013-03-24 07:55:00,
2013-03-24 03:00:00,60.1,58.7,29.64,NE,41,0.0,5.0,95,0.00,,SKC,0.00,VWS V14.00,2013-03-24 08:00:00,
2013-03-24 03:05:00,60.1,58.7,29.64,NE,41,0.0,0.0,95,0.00,,SKC,0.00,VWS V14.00,2013-03-24 08:05:00,
2013-03-24 03:10:00,60.1,58.7,29.64,NE,41,1.0,3.0,95,0.00,,SKC,0.00,VWS V14.00,2013-03-24 08:10:00,
2013-03-24 03:15:00,60.1,58.7,29.64,NE,41,2.0,3.0,95,0.00,,SKC,0.00,VWS V14.00,2013-03-24 08:15:00,
2013-03-24 03:20:00,60.1,58.7,29.64,NE,41,0.0,3.0,95,0.00,,SKC,0.00,VWS V14.00,2013-03-24 08:20:00,
2013-03-24 03:25:00,60.1,58.7,29.64,NE,41,0.0,3.0,95,0.00,,SKC,0.00,VWS V14.00,2013-03-24 08:25:00,
2013-03-24 03:30:00,60.1,58.7,29.64,NE,41,4.0,4.0,95,0.00,,SKC,0.00,VWS V14.00,2013-03-24 08:30:00,
2013-03-24 03:35:00,60.1,58.7,29.64,NE,41,2.0,4.0,95,0.00,,SKC,0.00,VWS V14.00,2013-03-24 08:35:00,
2013-03-24 03:40:00,60.1,58.7,29.63,NE,41,2.0,4.0,95,0.00,,SKC,0.00,VWS V14.00,2013-03-24 08:40:00,
2013-03-24 03:45:00,60.0,58.6,29.63,NE,41,3.0,4.0,95,0.00,,SKC,0.00,VWS V14.00,2013-03-24 08:45:00,
2013-03-24 03:50:00,59.9,58.5,29.63,NE,41,0.0,4.0,95,0.00,,SKC,0.00,VWS V14.00,2013-03-24 08:50:00,
2013-03-24 03:55:00,60.0,58.6,29.62,NE,41,0.0,4.0,95,0.00,,SKC,0.00,VWS V14.00,2013-03-24 08:55:00,
2013-03-24 04:00:00,59.9,58.5,29.62,NE,41,2.0,4.0,95,0.00,,SKC,0.00,VWS V14.00,2013-03-24 09:00:00,
2013-03-24 04:05:00,59.9,58.5,29.62,NE,41,4.0,5.0,95,0.00,,SKC,0.00,VWS V14.00,2013-03-24 09:05:00,
2013-03-24 04:10:00,59.8,58.4,29.62,NE,41,0.0,5.0,95,0.00,,SKC,0.00,VWS V14.00,2013-03-24 09:10:00,
2013-03-24 04:15:00,59.8,58.4,29.62,NE,41,0.0,5.0,95,0.00,,SKC,0.00,VWS V14.00,2013-03-24 09:15:00,
2013-03-24 04:20:00,59.8,58.4,29.62,NE,41,2.0,6.0,95,0.00,,SKC,0.00,VWS V14.00,2013-03-24 09:20:00,
2013-03-24 04:25:00,59.8,58.4,29.60,NE,41,3.0,6.0,95,0.00,,SKC,0.00,VWS V14.00,2013-03-24 09:25:00,
2013-03-24 04:30:00,59.7,58.3,29.60,NE,41,0.0,6.0,95,0.01,,SKC,0.01,VWS V14.00,2013-03-24 09:30:00,
2013-03-24 04:35:00,59.6,58.2,29.61,NE,41,2.0,6.0,95,0.01,,SKC,0.01,VWS V14.00,2013-03-24 09:35:00,
2013-03-24 04:40:00,59.6,58.2,29.61,NE,41,1.0,6.0,95,0.01,,SKC,0.01,VWS V14.00,2013-03-24 09:40:00,
2013-03-24 04:45:00,59.5,58.1,29.61,NE,41,0.0,6.0,95,0.01,,SKC,0.01,VWS V14.00,2013-03-24 09:45:00,
2013-03-24 04:50:00,59.5,58.1,29.61,NE,41,0.0,6.0,95,0.01,,SKC,0.01,VWS V14.00,2013-03-24 09:50:00,
2013-03-24 04:55:00,59.5,58.1,29.61,NE,41,0.0,6.0,95,0.01,,SKC,0.01,VWS V14.00,2013-03-24 09:55:00,
2013-03-24 05:00:00,59.5,58.1,29.62,NE,41,2.0,6.0,95,0.01,,SKC,0.01,VWS V14.00,2013-03-24 10:00:00,
2013-03-24 05:05:00,59.6,58.2,29.66,North,355,8.0,9.0,95,0.01,,SKC,0.01,VWS V14.00,2013-03-24 10:05:00,
2013-03-24 05:10:00,59.6,58.2,29.66,North,360,5.0,11.0,95,0.01,,SKC,0.01,VWS V14.00,2013-03-24 10:10:00,
2013-03-24 05:15:00,59.6,58.2,29.66,NNW,338,4.0,11.0,95,0.01,,SKC,0.01,VWS V14.00,2013-03-24 10:15:00,
2013-03-24 05:20:00,59.4,58.0,29.66,North,5,2.0,11.0,95,0.01,,SKC,0.01,VWS V14.00,2013-03-24 10:20:00,
2013-03-24 05:25:00,59.3,57.9,29.66,NNW,338,2.0,11.0,95,0.01,,SKC,0.01,VWS V14.00,2013-03-24 10:25:00,
2013-03-24 05:30:00,59.2,57.8,29.66,NNW,339,4.0,11.0,95,0.01,,SKC,0.01,VWS V14.00,2013-03-24 10:30:00,
2013-03-24 05:35:00,59.1,57.7,29.67,NNW,340,4.0,11.0,95,0.01,,SKC,0.01,VWS V14.00,2013-03-24 10:35:00,
2013-03-24 05:40:00,59.1,57.7,29.68,NNW,340,4.0,11.0,95,0.01,,SKC,0.01,VWS V14.00,2013-03-24 10:40:00,
2013-03-24 05:45:00,59.1,57.7,29.68,NNW,340,0.0,11.0,95,0.01,,SKC,0.01,VWS V14.00,2013-03-24 10:45:00,
2013-03-24 05:50:00,59.0,57.6,29.68,NNW,340,2.0,11.0,95,0.01,,SKC,0.01,VWS V14.00,2013-03-24 10:50:00,
2013-03-24 05:55:00,59.0,57.6,29.69,NNW,340,4.0,11.0,95,0.01,,SKC,0.01,VWS V14.00,2013-03-24 10:55:00,
2013-03-24 06:00:00,59.1,57.7,29.69,NNW,345,7.0,11.0,95,0.01,,SKC,0.01,VWS V14.00,2013-03-24 11:00:00,
2013-03-24 06:05:00,59.0,57.6,29.69,NNW,345,5.0,7.0,95,0.00,,SKC,0.01,VWS V14.00,2013-03-24 11:05:00,
2013-03-24 06:10:00,59.1,57.7,29.69,NNW,345,1.0,7.0,95,0.00,,SKC,0.01,VWS V14.00,2013-03-24 11:10:00,
2013-03-24 06:15:00,59.1,57.7,29.69,NNW,339,4.0,7.0,95,0.00,,SKC,0.01,VWS V14.00,2013-03-24 11:15:00,
2013-03-24 06:20:00,59.1,57.7,29.69,NNW,338,4.0,7.0,95,0.00,,SKC,0.01,VWS V14.00,2013-03-24 11:20:00,
2013-03-24 06:25:00,59.2,57.8,29.71,NNW,342,5.0,9.0,95,0.00,,SKC,0.01,VWS V14.00,2013-03-24 11:25:00,
2013-03-24 06:30:00,59.2,57.8,29.71,NNW,340,2.0,9.0,95,0.00,,SKC,0.01,VWS V14.00,2013-03-24 11:30:00,
2013-03-24 06:35:00,59.2,57.8,29.71,NNW,343,8.0,9.0,95,0.00,,SKC,0.01,VWS V14.00,2013-03-24 11:35:00,
2013-03-24 06:40:00,59.2,57.5,29.72,NNW,331,4.0,13.0,94,0.00,,SKC,0.01,VWS V14.00,2013-03-24 11:40:00,
2013-03-24 06:45:00,59.2,57.5,29.72,NNW,333,7.0,13.0,94,0.00,,SKC,0.01,VWS V14.00,2013-03-24 11:45:00,
2013-03-24 06:50:00,59.1,57.4,29.72,NNW,333,6.0,13.0,94,0.00,,SKC,0.01,VWS V14.00,2013-03-24 11:50:00,
2013-03-24 06:55:00,59.1,57.4,29.72,NNW,333,4.0,13.0,94,0.00,,SKC,0.01,VWS V14.00,2013-03-24 11:55:00,
2013-03-24 07:00:00,59.0,57.3,29.72,NNW,331,5.0,13.0,94,0.00,,SKC,0.01,VWS V14.00,2013-03-24 12:00:00,
2013-03-24 07:05:00,59.1,57.4,29.72,NW,325,6.0,10.0,94,0.00,,SKC,0.01,VWS V14.00,2013-03-24 12:05:00,
2013-03-24 07:10:00,59.1,57.4,29.72,NNW,341,6.0,10.0,94,0.00,,SKC,0.01,VWS V14.00,2013-03-24 12:10:00,
2013-03-24 07:15:00,59.1,57.4,29.73,NNW,340,5.0,10.0,94,0.00,,SKC,0.01,VWS V14.00,2013-03-24 12:15:00,
2013-03-24 07:20:00,59.1,57.4,29.74,NNW,340,6.0,10.0,94,0.00,,SKC,0.01,VWS V14.00,2013-03-24 12:20:00,
2013-03-24 07:25:00,59.1,57.4,29.75,NNW,340,11.0,14.0,94,0.00,,SKC,0.01,VWS V14.00,2013-03-24 12:25:00,
2013-03-24 07:30:00,59.1,57.4,29.75,NW,321,11.0,14.0,94,0.00,,SKC,0.01,VWS V14.00,2013-03-24 12:30:00,
2013-03-24 07:35:00,59.1,57.4,29.75,North,360,8.0,20.0,94,0.00,,SKC,0.01,VWS V14.00,2013-03-24 12:35:00,
2013-03-24 07:40:00,59.2,57.5,29.76,NW,321,13.0,20.0,94,0.00,,SKC,0.01,VWS V14.00,2013-03-24 12:40:00,
2013-03-24 07:45:00,59.2,57.5,29.75,NNE,18,6.0,20.0,94,0.00,,SKC,0.01,VWS V14.00,2013-03-24 12:45:00,
2013-03-24 07:50:00,59.2,57.2,29.74,NNW,332,8.0,20.0,93,0.00,,SKC,0.01,VWS V14.00,2013-03-24 12:50:00,
2013-03-24 07:55:00,59.3,57.3,29.75,NNW,331,10.0,20.0,93,0.00,,SKC,0.01,VWS V14.00,2013-03-24 12:55:00,
2013-03-24 08:00:00,59.3,57.3,29.75,NNW,347,2.0,20.0,93,0.00,,SKC,0.01,VWS V14.00,2013-03-24 13:00:00,
2013-03-24 08:05:00,59.4,57.4,29.76,North,5,5.0,11.0,93,0.00,,SKC,0.01,VWS V14.00,2013-03-24 13:05:00,
2013-03-24 08:10:00,59.4,57.4,29.76,North,360,8.0,16.0,93,0.00,,SKC,0.01,VWS V14.00,2013-03-24 13:10:00,
2013-03-24 08:15:00,59.3,57.3,29.77,NNW,333,9.0,16.0,93,0.00,,SKC,0.01,VWS V14.00,2013-03-24 13:15:00,
2013-03-24 08:20:00,59.3,57.0,29.77,North,360,5.0,16.0,92,0.00,,SKC,0.01,VWS V14.00,2013-03-24 13:20:00,
2013-03-24 08:25:00,59.3,57.0,29.78,WNW,301,8.0,18.0,92,0.00,,SKC,0.01,VWS V14.00,2013-03-24 13:25:00,
2013-03-24 08:30:00,59.4,57.1,29.78,NW,325,8.0,18.0,92,0.00,,SKC,0.01,VWS V14.00,2013-03-24 13:30:00,
2013-03-24 08:35:00,59.4,57.1,29.78,NNW,342,11.0,18.0,92,0.00,,SKC,0.01,VWS V14.00,2013-03-24 13:35:00,
2013-03-24 08:40:00,59.3,56.7,29.79,NNW,348,11.0,18.0,91,0.00,,SKC,0.01,VWS V14.00,2013-03-24 13:40:00,
2013-03-24 08:45:00,59.3,56.4,29.79,NNW,343,10.0,18.0,90,0.00,,SKC,0.01,VWS V14.00,2013-03-24 13:45:00,
2013-03-24 08:50:00,59.4,56.5,29.80,NNW,333,9.0,18.0,90,0.00,,SKC,0.01,VWS V14.00,2013-03-24 13:50:00,
2013-03-24 08:55:00,59.4,56.5,29.80,NNW,344,9.0,18.0,90,0.00,,SKC,0.01,VWS V14.00,2013-03-24 13:55:00,
2013-03-24 09:00:00,59.3,56.1,29.80,NNW,342,8.0,19.0,89,0.00,,SKC,0.01,VWS V14.00,2013-03-24 14:00:00,
2013-03-24 09:05:00,59.3,56.1,29.80,NNW,331,5.0,17.0,89,0.00,,SKC,0.01,VWS V14.00,2013-03-24 14:05:00,
2013-03-24 09:10:00,59.3,56.1,29.79,North,355,5.0,17.0,89,0.00,,SKC,0.01,VWS V14.00,2013-03-24 14:10:00,
2013-03-24 09:15:00,59.6,56.4,29.80,NNW,335,7.0,17.0,89,0.00,,SKC,0.01,VWS V14.00,2013-03-24 14:15:00,
2013-03-24 09:20:00,60.0,56.1,29.80,NNW,342,4.0,17.0,87,0.00,,SKC,0.01,VWS V14.00,2013-03-24 14:20:00,
2013-03-24 09:25:00,60.5,56.9,29.80,North,355,4.0,17.0,88,0.00,,SKC,0.01,VWS V14.00,2013-03-24 14:25:00,
2013-03-24 09:30:00,61.0,57.1,29.80,NNW,336,9.0,17.0,87,0.00,,SKC,0.01,VWS V14.00,2013-03-24 14:30:00,
2013-03-24 09:35:00,61.7,57.2,29.81,WNW,302,7.0,17.0,85,0.00,,SKC,0.01,VWS V14.00,2013-03-24 14:35:00,
2013-03-24 09:40:00,61.8,56.9,29.81,NNW,330,8.0,17.0,84,0.00,,SKC,0.01,VWS V14.00,2013-03-24 14:40:00,
2013-03-24 09:45:00,61.9,57.0,29.81,NNW,339,19.0,21.0,84,0.00,,SKC,0.01,VWS V14.00,2013-03-24 14:45:00,
2013-03-24 09:50:00,61.7,56.5,29.81,North,10,10.0,22.0,83,0.00,,SKC,0.01,VWS V14.00,2013-03-24 14:50:00,
2013-03-24 09:55:00,61.7,56.2,29.82,NW,326,10.0,22.0,82,0.00,,SKC,0.01,VWS V14.00,2013-03-24 14:55:00,
2013-03-24 10:00:00,61.8,56.6,29.82,WNW,286,14.0,22.0,83,0.00,,SKC,0.01,VWS V14.00,2013-03-24 15:00:00,
2013-03-24 10:05:00,61.8,56.9,29.82,NW,304,7.0,14.0,84,0.00,,SKC,0.01,VWS V14.00,2013-03-24 15:05:00,
2013-03-24 10:10:00,61.4,56.2,29.82,NW,315,9.0,16.0,83,0.00,,SKC,0.01,VWS V14.00,2013-03-24 15:10:00,
2013-03-24 10:15:00,60.8,55.3,29.83,NNW,338,15.0,22.0,82,0.00,,SKC,0.01,VWS V14.00,2013-03-24 15:15:00,
2013-03-24 10:20:00,60.5,55.0,29.83,NW,325,13.0,22.0,82,0.00,,SKC,0.01,VWS V14.00,2013-03-24 15:20:00,
2013-03-24 10:25:00,60.4,54.9,29.83,WNW,295,20.0,22.0,82,0.00,,SKC,0.01,VWS V14.00,2013-03-24 15:25:00,
2013-03-24 10:30:00,60.0,54.8,29.83,NW,321,5.0,22.0,83,0.00,,SKC,0.01,VWS V14.00,2013-03-24 15:30:00,
2013-03-24 10:35:00,60.1,54.6,29.84,NW,308,5.0,22.0,82,0.00,,SKC,0.01,VWS V14.00,2013-03-24 15:35:00,
2013-03-24 10:40:00,60.4,54.9,29.84,NW,322,6.0,22.0,82,0.00,,SKC,0.01,VWS V14.00,2013-03-24 15:40:00,
2013-03-24 10:45:00,60.4,54.2,29.84,WNW,286,11.0,22.0,80,0.00,,SKC,0.01,VWS V14.00,2013-03-24 15:45:00,
2013-03-24 10:50:00,60.6,54.4,29.84,NW,325,8.0,22.0,80,0.00,,SKC,0.01,VWS V14.00,2013-03-24 15:50:00,
2013-03-24 10:55:00,60.2,53.0,29.84,NNW,336,10.0,22.0,77,0.00,,SKC,0.01,VWS V14.00,2013-03-24 15:55:00,
2013-03-24 11:00:00,60.0,52.8,29.84,NW,316,10.0,22.0,77,0.00,,SKC,0.01,VWS V14.00,2013-03-24 16:00:00,
2013-03-24 11:05:00,60.4,52.8,29.85,NW,308,7.0,19.0,76,0.00,,SKC,0.01,VWS V14.00,2013-03-24 16:05:00,
2013-03-24 11:10:00,60.6,52.3,29.85,NNW,345,7.0,21.0,74,0.00,,SKC,0.01,VWS V14.00,2013-03-24 16:10:00,
2013-03-24 11:15:00,60.6,52.3,29.85,NW,319,6.0,21.0,74,0.00,,SKC,0.01,VWS V14.00,2013-03-24 16:15:00,
2013-03-24 11:20:00,61.0,52.3,29.85,NW,325,15.0,21.0,73,0.00,,SKC,0.01,VWS V14.00,2013-03-24 16:20:00,
2013-03-24 11:25:00,60.8,52.5,29.85,NNW,347,13.0,21.0,74,0.00,,SKC,0.01,VWS V14.00,2013-03-24 16:25:00,
2013-03-24 11:30:00,60.7,49.7,29.86,NW,308,9.0,23.0,67,0.00,,SKC,0.01,VWS V14.00,2013-03-24 16:30:00,
2013-03-24 11:35:00,61.4,49.5,29.86,NW,322,13.0,23.0,65,0.00,,SKC,0.01,VWS V14.00,2013-03-24 16:35:00,
2013-03-24 11:40:00,61.7,49.4,29.85,NNW,335,7.0,23.0,64,0.00,,SKC,0.01,VWS V14.00,2013-03-24 16:40:00,
2013-03-24 11:45:00,61.7,49.8,29.86,NNW,334,7.0,23.0,65,0.00,,SKC,0.01,VWS V14.00,2013-03-24 16:45:00,
2013-03-24 11:50:00,61.9,48.3,29.86,North,355,11.0,24.0,61,0.00,,SKC,0.01,VWS V14.00,2013-03-24 16:50:00,
2013-03-24 11:55:00,61.7,48.6,29.86,NNW,331,10.0,24.0,62,0.00,,SKC,0.01,VWS V14.00,2013-03-24 16:55:00,
2013-03-24 12:00:00,61.8,49.1,29.86,NW,323,11.0,24.0,63,0.00,,SKC,0.01,VWS V14.00,2013-03-24 17:00:00,
2013-03-24 12:05:00,61.8,47.8,29.86,NNW,333,15.0,21.0,60,0.00,,SKC,0.01,VWS V14.00,2013-03-24 17:05:00,
2013-03-24 12:10:00,61.8,48.2,29.86,NNW,334,15.0,21.0,61,0.00,,SKC,0.01,VWS V14.00,2013-03-24 17:10:00,
2013-03-24 12:15:00,62.1,49.4,29.86,NNW,327,12.0,21.0,63,0.00,,SKC,0.01,VWS V14.00,2013-03-24 17:15:00,
2013-03-24 12:20:00,62.8,47.8,29.86,West,279,13.0,21.0,58,0.00,,SKC,0.01,VWS V14.00,2013-03-24 17:20:00,
2013-03-24 12:25:00,63.2,45.3,29.86,North,5,13.0,22.0,52,0.00,,SKC,0.01,VWS V14.00,2013-03-24 17:25:00,
2013-03-24 12:30:00,63.1,45.7,29.86,NNW,340,10.0,27.0,53,0.00,,SKC,0.01,VWS V14.00,2013-03-24 17:30:00,
2013-03-24 12:35:00,63.0,44.6,29.86,WNW,303,9.0,27.0,51,0.00,,SKC,0.01,VWS V14.00,2013-03-24 17:35:00,
2013-03-24 12:40:00,63.4,44.5,29.86,NW,306,14.0,27.0,50,0.00,,SKC,0.01,VWS V14.00,2013-03-24 17:40:00,
2013-03-24 12:45:00,63.8,45.3,29.86,NNW,327,14.0,27.0,51,0.00,,SKC,0.01,VWS V14.00,2013-03-24 17:45:00,
2013-03-24 12:50:00,63.9,46.0,29.86,NNW,344,9.0,27.0,52,0.00,,SKC,0.01,VWS V14.00,2013-03-24 17:50:00,
2013-03-24 12:55:00,64.4,45.9,29.85,NNW,345,9.0,27.0,51,0.00,,SKC,0.01,VWS V14.00,2013-03-24 17:55:00,
2013-03-24 13:00:00,64.9,46.9,29.86,North,5,8.0,27.0,52,0.00,,SKC,0.01,VWS V14.00,2013-03-24 18:00:00,
2013-03-24 13:05:00,64.8,45.2,29.86,WNW,301,7.0,20.0,49,0.00,,SKC,0.01,VWS V14.00,2013-03-24 18:05:00,
2013-03-24 13:10:00,64.5,43.8,29.85,WNW,292,13.0,20.0,47,0.00,,SKC,0.01,VWS V14.00,2013-03-24 18:10:00,
2013-03-24 13:15:00,64.5,43.3,29.85,NW,304,7.0,22.0,46,0.00,,SKC,0.01,VWS V14.00,2013-03-24 18:15:00,
2013-03-24 13:20:00,64.6,43.9,29.85,WNW,286,13.0,25.0,47,0.00,,SKC,0.01,VWS V14.00,2013-03-24 18:20:00,
2013-03-24 13:25:00,64.9,45.3,29.85,NNW,329,7.0,25.0,49,0.00,,SKC,0.01,VWS V14.00,2013-03-24 18:25:00,
2013-03-24 13:30:00,65.2,40.9,29.86,WNW,300,12.0,25.0,41,0.00,,SKC,0.01,VWS V14.00,2013-03-24 18:30:00,
2013-03-24 13:35:00,64.5,42.7,29.86,NW,310,11.0,25.0,45,0.00,,SKC,0.01,VWS V14.00,2013-03-24 18:35:00,
2013-03-24 13:40:00,64.6,39.1,29.86,NW,315,8.0,25.0,39,0.00,,SKC,0.01,VWS V14.00,2013-03-24 18:40:00,
2013-03-24 13:45:00,64.6,40.4,29.85,North,355,10.0,25.0,41,0.00,,SKC,0.01,VWS V14.00,2013-03-24 18:45:00,
2013-03-24 13:50:00,64.5,40.9,29.86,NNW,343,12.0,25.0,42,0.00,,SKC,0.01,VWS V14.00,2013-03-24 18:50:00,
2013-03-24 13:55:00,63.8,38.4,29.85,WNW,294,21.0,30.0,39,0.00,,SKC,0.01,VWS V14.00,2013-03-24 18:55:00,
2013-03-24 14:00:00,63.5,39.4,29.86,WNW,303,11.0,30.0,41,0.00,,SKC,0.01,VWS V14.00,2013-03-24 19:00:00,
2013-03-24 14:05:00,63.5,38.8,29.86,NNW,330,15.0,22.0,40,0.00,,SKC,0.01,VWS V14.00,2013-03-24 19:05:00,
2013-03-24 14:10:00,63.9,39.1,29.86,NW,315,14.0,22.0,40,0.00,,SKC,0.01,VWS V14.00,2013-03-24 19:10:00,
2013-03-24 14:15:00,63.6,39.5,29.86,NNW,346,7.0,22.0,41,0.00,,SKC,0.01,VWS V14.00,2013-03-24 19:15:00,
2013-03-24 14:20:00,63.8,40.9,29.85,NNW,336,10.0,22.0,43,0.00,,SKC,0.01,VWS V14.00,2013-03-24 19:20:00,
2013-03-24 14:25:00,63.8,39.7,29.85,WNW,286,24.0,25.0,41,0.00,,SKC,0.01,VWS V14.00,2013-03-24 19:25:00,
2013-03-24 14:30:00,63.4,39.9,29.85,NNW,344,11.0,25.0,42,0.00,,SKC,0.01,VWS V14.00,2013-03-24 19:30:00,
2013-03-24 14:35:00,63.2,41.5,29.85,NW,309,9.0,25.0,45,0.00,,SKC,0.01,VWS V14.00,2013-03-24 19:35:00,
2013-03-24 14:40:00,63.4,40.5,29.85,NNW,346,11.0,25.0,43,0.00,,SKC,0.01,VWS V14.00,2013-03-24 19:40:00,
2013-03-24 14:45:00,63.6,40.7,29.85,NW,323,11.0,25.0,43,0.00,,SKC,0.01,VWS V14.00,2013-03-24 19:45:00,
2013-03-24 14:50:00,63.9,39.8,29.85,NW,318,9.0,25.0,41,0.00,,SKC,0.01,VWS V14.00,2013-03-24 19:50:00,
2013-03-24 14:55:00,63.8,38.4,29.85,NW,325,19.0,25.0,39,0.00,,SKC,0.01,VWS V14.00,2013-03-24 19:55:00,
2013-03-24 15:00:00,63.6,38.9,29.85,NW,315,10.0,25.0,40,0.00,,SKC,0.01,VWS V14.00,2013-03-24 20:00:00,
2013-03-24 15:05:00,63.4,38.7,29.86,NNW,331,19.0,19.0,40,0.00,,SKC,0.01,VWS V14.00,2013-03-24 20:05:00,
2013-03-24 15:10:00,63.2,40.3,29.86,NW,313,11.0,25.0,43,0.00,,SKC,0.01,VWS V14.00,2013-03-24 20:10:00,
2013-03-24 15:15:00,63.2,38.5,29.85,NW,325,9.0,25.0,40,0.00,,SKC,0.01,VWS V14.00,2013-03-24 20:15:00,
2013-03-24 15:20:00,63.2,38.5,29.85,NW,326,19.0,25.0,40,0.00,,SKC,0.01,VWS V14.00,2013-03-24 20:20:00,
2013-03-24 15:25:00,62.7,37.4,29.85,NNW,346,23.0,25.0,39,0.00,,SKC,0.01,VWS V14.00,2013-03-24 20:25:00,
2013-03-24 15:30:00,62.7,38.0,29.85,NNW,329,9.0,25.0,40,0.00,,SKC,0.01,VWS V14.00,2013-03-24 20:30:00,
2013-03-24 15:35:00,62.9,36.9,29.86,NNW,334,10.0,25.0,38,0.00,,SKC,0.01,VWS V14.00,2013-03-24 20:35:00,
2013-03-24 15:40:00,62.9,37.6,29.85,NW,325,12.0,25.0,39,0.00,,SKC,0.01,VWS V14.00,2013-03-24 20:40:00,
2013-03-24 15:45:00,63.0,38.3,29.85,NW,317,7.0,25.0,40,0.00,,SKC,0.01,VWS V14.00,2013-03-24 20:45:00,
2013-03-24 15:50:00,62.9,36.9,29.85,North,350,13.0,25.0,38,0.00,,SKC,0.01,VWS V14.00,2013-03-24 20:50:00,
2013-03-24 15:54:00,62.0,37.4,29.85,NNW,343,8.0,28.0,40,0.00,,SKC,0.01,VWS V14.00,2013-03-24 20:54:00,
2013-03-24 16:00:00,62.3,35.0,29.85,NNW,327,14.0,28.0,36,0.00,,SKC,0.01,VWS V14.00,2013-03-24 21:00:00,
2013-03-24 16:05:00,62.1,35.5,29.85,NNW,338,10.0,19.0,37,0.00,,SKC,0.01,VWS V14.00,2013-03-24 21:05:00,
2013-03-24 16:10:00,62.2,36.3,29.85,NNW,333,14.0,19.0,38,0.00,,SKC,0.01,VWS V14.00,2013-03-24 21:10:00,
2013-03-24 16:15:00,61.9,36.7,29.85,NNE,26,13.0,19.0,39,0.00,,SKC,0.01,VWS V14.00,2013-03-24 21:15:00,
2013-03-24 16:20:00,61.9,35.4,29.86,NW,325,11.0,22.0,37,0.00,,SKC,0.01,VWS V14.00,2013-03-24 21:20:00,
2013-03-24 16:25:00,61.7,35.2,29.86,NW,316,10.0,22.0,37,0.00,,SKC,0.01,VWS V14.00,2013-03-24 21:25:00,
2013-03-24 16:29:00,61.6,35.8,29.86,NW,323,13.0,22.0,38,0.00,,SKC,0.01,VWS V14.00,2013-03-24 21:29:00,
2013-03-24 16:34:00,61.6,35.1,29.86,NW,314,13.0,22.0,37,0.00,,SKC,0.01,VWS V14.00,2013-03-24 21:34:00,
2013-03-24 16:39:00,61.4,36.2,29.87,NNE,13,8.0,22.0,39,0.00,,SKC,0.01,VWS V14.00,2013-03-24 21:39:00,
2013-03-24 16:44:00,61.3,35.5,29.86,North,355,9.0,22.0,38,0.00,,SKC,0.01,VWS V14.00,2013-03-24 21:44:00,
2013-03-24 16:49:00,61.1,36.0,29.86,NNW,327,15.0,22.0,39,0.00,,SKC,0.01,VWS V14.00,2013-03-24 21:49:00,
2013-03-24 16:54:00,61.0,35.2,29.87,NW,321,13.0,22.0,38,0.00,,SKC,0.01,VWS V14.00,2013-03-24 21:54:00,
2013-03-24 16:59:00,60.8,35.7,29.87,NNW,329,6.0,22.0,39,0.00,,SKC,0.01,VWS V14.00,2013-03-24 21:59:00,
2013-03-24 17:04:00,60.6,36.2,29.86,NNW,332,5.0,13.0,40,0.00,,SKC,0.01,VWS V14.00,2013-03-24 22:04:00,
2013-03-24 17:09:00,60.8,36.3,29.87,NNW,344,9.0,22.0,40,0.00,,SKC,0.01,VWS V14.00,2013-03-24 22:09:00,
2013-03-24 17:14:00,60.7,35.6,29.87,NW,306,11.0,22.0,39,0.00,,SKC,0.01,VWS V14.00,2013-03-24 22:14:00,
2013-03-24 17:19:00,60.6,36.8,29.87,NNW,330,10.0,22.0,41,0.00,,SKC,0.01,VWS V14.00,2013-03-24 22:19:00,
2013-03-24 17:24:00,60.3,34.6,29.87,NNW,345,8.0,22.0,38,0.00,,SKC,0.01,VWS V14.00,2013-03-24 22:24:00,
2013-03-24 17:29:00,60.2,35.2,29.87,North,9,11.0,22.0,39,0.00,,SKC,0.01,VWS V14.00,2013-03-24 22:29:00,
2013-03-24 17:34:00,60.3,35.9,29.87,NNE,19,7.0,22.0,40,0.00,,SKC,0.01,VWS V14.00,2013-03-24 22:34:00,
2013-03-24 17:39:00,60.2,34.5,29.87,NNW,327,11.0,22.0,38,0.00,,SKC,0.01,VWS V14.00,2013-03-24 22:39:00,
2013-03-24 17:44:00,60.0,36.2,29.87,NNE,23,6.0,22.0,41,0.00,,SKC,0.01,VWS V14.00,2013-03-24 22:44:00,
2013-03-24 17:49:00,59.9,36.2,29.87,North,349,9.0,22.0,41,0.00,,SKC,0.01,VWS V14.00,2013-03-24 22:49:00,
2013-03-24 17:54:00,60.0,34.3,29.87,NNW,330,16.0,22.0,38,0.00,,SKC,0.01,VWS V14.00,2013-03-24 22:54:00,
2013-03-24 17:59:00,59.7,32.0,29.88,NNW,331,11.0,22.0,35,0.00,,SKC,0.01,VWS V14.00,2013-03-24 22:59:00,
2013-03-24 18:04:00,59.4,32.5,29.88,North,355,7.0,17.0,36,0.00,,SKC,0.01,VWS V14.00,2013-03-24 23:04:00,
2013-03-24 18:09:00,59.2,33.6,29.88,North,355,7.0,19.0,38,0.00,,SKC,0.01,VWS V14.00,2013-03-24 23:09:00,
2013-03-24 18:14:00,59.1,34.8,29.88,North,350,9.0,19.0,40,0.00,,SKC,0.01,VWS V14.00,2013-03-24 23:14:00,
2013-03-24 18:19:00,58.9,34.6,29.88,North,9,10.0,19.0,40,0.00,,SKC,0.01,VWS V14.00,2013-03-24 23:19:00,
2013-03-24 18:24:00,58.5,34.3,29.89,NNE,16,11.0,19.0,40,0.00,,SKC,0.01,VWS V14.00,2013-03-24 23:24:00,
2013-03-24 18:29:00,58.1,33.9,29.89,NNE,19,11.0,19.0,40,0.00,,SKC,0.01,VWS V14.00,2013-03-24 23:29:00,
2013-03-24 18:34:00,57.7,34.2,29.89,NNE,24,8.0,19.0,41,0.00,,SKC,0.01,VWS V14.00,2013-03-24 23:34:00,
2013-03-24 18:39:00,57.5,35.2,29.90,North,360,10.0,19.0,43,0.00,,SKC,0.01,VWS V14.00,2013-03-24 23:39:00,
2013-03-24 18:44:00,57.3,35.6,29.90,North,5,6.0,19.0,44,0.00,,SKC,0.01,VWS V14.00,2013-03-24 23:44:00,
2013-03-24 18:49:00,57.0,34.8,29.90,North,355,16.0,19.0,43,0.00,,SKC,0.01,VWS V14.00,2013-03-24 23:49:00,
2013-03-24 18:54:00,56.7,33.3,29.90,North,5,8.0,19.0,41,0.00,,SKC,0.01,VWS V14.00,2013-03-24 23:54:00,
2013-03-24 18:59:00,56.4,34.2,29.91,NNW,329,6.0,19.0,43,0.00,,SKC,0.01,VWS V14.00,2013-03-24 23:59:00,
2013-03-24 19:04:00,56.1,33.9,29.91,North,5,7.0,18.0,43,0.00,,SKC,0.01,VWS V14.00,2013-03-25 00:04:00,
2013-03-24 19:09:00,55.8,33.7,29.91,North,355,9.0,18.0,43,0.00,,SKC,0.01,VWS V14.00,2013-03-25 00:09:00,
2013-03-24 19:14:00,55.5,34.5,29.91,North,355,11.0,18.0,45,0.00,,SKC,0.01,VWS V14.00,2013-03-25 00:14:00,
2013-03-24 19:19:00,55.1,34.7,29.92,North,355,9.0,18.0,46,0.00,,SKC,0.01,VWS V14.00,2013-03-25 00:19:00,
2013-03-24 19:24:00,54.8,34.4,29.92,North,355,10.0,18.0,46,0.00,,SKC,0.01,VWS V14.00,2013-03-25 00:24:00,
2013-03-24 19:29:00,54.4,34.1,29.92,NNW,341,12.0,21.0,46,0.00,,SKC,0.01,VWS V14.00,2013-03-25 00:29:00,
2013-03-24 19:34:00,54.2,33.9,29.92,NNW,344,8.0,21.0,46,0.00,,SKC,0.01,VWS V14.00,2013-03-25 00:34:00,
2013-03-24 19:39:00,53.9,34.2,29.93,North,355,10.0,21.0,47,0.00,,SKC,0.01,VWS V14.00,2013-03-25 00:39:00,
2013-03-24 19:44:00,53.6,34.4,29.93,NW,315,15.0,21.0,48,0.00,,SKC,0.01,VWS V14.00,2013-03-25 00:44:00,
2013-03-24 19:49:00,53.3,34.1,29.93,NNW,327,11.0,21.0,48,0.00,,SKC,0.01,VWS V14.00,2013-03-25 00:49:00,
2013-03-24 19:54:00,53.2,34.0,29.94,North,355,7.0,23.0,48,0.00,,SKC,0.01,VWS V14.00,2013-03-25 00:54:00,
2013-03-24 19:59:00,53.0,34.4,29.94,North,360,12.0,23.0,49,0.00,,SKC,0.01,VWS V14.00,2013-03-25 00:59:00,
2013-03-24 20:04:00,52.8,33.7,29.95,NW,308,8.0,16.0,48,0.00,,SKC,0.01,VWS V14.00,2013-03-25 01:04:00,
2013-03-24 20:09:00,52.8,33.2,29.95,North,355,11.0,18.0,47,0.00,,SKC,0.01,VWS V14.00,2013-03-25 01:09:00,
2013-03-24 20:14:00,52.6,33.5,29.95,NNW,334,8.0,18.0,48,0.00,,SKC,0.01,VWS V14.00,2013-03-25 01:14:00,
2013-03-24 20:19:00,52.4,33.8,29.96,NW,323,7.0,20.0,49,0.00,,SKC,0.01,VWS V14.00,2013-03-25 01:19:00,
2013-03-24 20:24:00,52.2,33.6,29.96,NW,317,14.0,20.0,49,0.00,,SKC,0.01,VWS V14.00,2013-03-25 01:24:00,
2013-03-24 20:29:00,52.1,34.0,29.96,NNW,327,9.0,20.0,50,0.00,,SKC,0.01,VWS V14.00,2013-03-25 01:29:00,
2013-03-24 20:34:00,51.9,33.9,29.96,North,355,5.0,20.0,50,0.00,,SKC,0.01,VWS V14.00,2013-03-25 01:34:00,
2013-03-24 20:39:00,51.7,34.2,29.97,North,5,7.0,20.0,51,0.00,,SKC,0.01,VWS V14.00,2013-03-25 01:39:00,
2013-03-24 20:44:00,51.7,34.2,29.97,NNW,348,10.0,22.0,51,0.00,,SKC,0.01,VWS V14.00,2013-03-25 01:44:00,
2013-03-24 20:49:00,51.5,33.5,29.98,NW,313,11.0,22.0,50,0.00,,SKC,0.01,VWS V14.00,2013-03-25 01:49:00,
2013-03-24 20:54:00,51.4,32.9,29.98,North,355,9.0,22.0,49,0.00,,SKC,0.01,VWS V14.00,2013-03-25 01:54:00,
2013-03-24 20:59:00,51.3,33.3,29.98,NNE,12,9.0,22.0,50,0.00,,SKC,0.01,VWS V14.00,2013-03-25 01:59:00,
2013-03-24 21:04:00,51.0,33.0,29.99,NNW,338,6.0,13.0,50,0.00,,SKC,0.01,VWS V14.00,2013-03-25 02:04:00,
2013-03-24 21:09:00,50.8,33.3,29.99,NNW,336,5.0,13.0,51,0.00,,SKC,0.01,VWS V14.00,2013-03-25 02:09:00,
2013-03-24 21:14:00,50.6,33.6,29.99,North,355,9.0,17.0,52,0.00,,SKC,0.01,VWS V14.00,2013-03-25 02:14:00,
2013-03-24 21:19:00,50.5,33.5,29.99,NNW,342,6.0,17.0,52,0.00,,SKC,0.01,VWS V14.00,2013-03-25 02:19:00,
2013-03-24 21:24:00,50.3,33.4,30.00,NNE,15,6.0,17.0,52,0.00,,SKC,0.01,VWS V14.00,2013-03-25 02:24:00,
2013-03-24 21:29:00,50.3,33.8,30.00,North,5,7.0,17.0,53,0.00,,SKC,0.01,VWS V14.00,2013-03-25 02:29:00,
2013-03-24 21:34:00,50.1,33.7,30.00,NNW,341,6.0,17.0,53,0.00,,SKC,0.01,VWS V14.00,2013-03-25 02:34:00,
2013-03-24 21:39:00,50.0,33.6,30.01,NNW,336,7.0,17.0,53,0.00,,SKC,0.01,VWS V14.00,2013-03-25 02:39:00,
2013-03-24 21:44:00,49.9,33.9,30.01,North,9,5.0,17.0,54,0.00,,SKC,0.01,VWS V14.00,2013-03-25 02:44:00,
2013-03-24 21:49:00,49.6,33.7,30.01,NNW,348,7.0,17.0,54,0.00,,SKC,0.01,VWS V14.00,2013-03-25 02:49:00,
2013-03-24 21:54:00,49.6,34.6,30.01,North,360,5.0,17.0,56,0.00,,SKC,0.01,VWS V14.00,2013-03-25 02:54:00,
2013-03-24 21:59:00,49.3,34.3,30.02,North,9,8.0,17.0,56,0.00,,SKC,0.01,VWS V14.00,2013-03-25 02:59:00,
2013-03-24 22:04:00,49.2,33.7,30.02,North,9,7.0,15.0,55,0.00,,SKC,0.01,VWS V14.00,2013-03-25 03:04:00,
2013-03-24 22:09:00,49.3,34.3,30.02,NNW,331,8.0,15.0,56,0.00,,SKC,0.01,VWS V14.00,2013-03-25 03:09:00,
2013-03-24 22:14:00,49.1,34.1,30.02,North,5,5.0,15.0,56,0.00,,SKC,0.01,VWS V14.00,2013-03-25 03:14:00,
2013-03-24 22:19:00,49.0,34.0,30.03,North,360,6.0,15.0,56,0.00,,SKC,0.01,VWS V14.00,2013-03-25 03:19:00,
2013-03-24 22:24:00,48.8,33.8,30.03,NNW,347,9.0,16.0,56,0.00,,SKC,0.01,VWS V14.00,2013-03-25 03:24:00,
2013-03-24 22:29:00,48.7,33.7,30.03,NNW,346,4.0,16.0,56,0.00,,SKC,0.01,VWS V14.00,2013-03-25 03:29:00,
2013-03-24 22:34:00,48.6,33.6,30.03,North,360,5.0,16.0,56,0.00,,SKC,0.01,VWS V14.00,2013-03-25 03:34:00,
2013-03-24 22:39:00,48.4,33.9,30.04,North,360,5.0,16.0,57,0.00,,SKC,0.01,VWS V14.00,2013-03-25 03:39:00,
2013-03-24 22:44:00,48.2,34.1,30.04,North,9,8.0,16.0,58,0.00,,SKC,0.01,VWS V14.00,2013-03-25 03:44:00,
2013-03-24 22:49:00,47.9,33.8,30.04,NNE,31,4.0,18.0,58,0.00,,SKC,0.01,VWS V14.00,2013-03-25 03:49:00,
2013-03-24 22:54:00,47.8,34.6,30.04,NNE,15,9.0,18.0,60,0.00,,SKC,0.01,VWS V14.00,2013-03-25 03:54:00,
2013-03-24 22:59:00,47.6,33.6,30.04,North,5,7.0,18.0,58,0.00,,SKC,0.01,VWS V14.00,2013-03-25 03:59:00,
2013-03-24 23:00:00,47.6,33.6,30.05,NNW,338,14.0,18.0,58,0.00,,SKC,0.01,VWS V14.00,2013-03-25 04:00:00,
2013-03-24 23:05:00,47.4,33.0,30.05,North,355,7.0,17.0,57,0.00,,SKC,0.01,VWS V14.00,2013-03-25 04:05:00,
2013-03-24 23:10:00,47.3,32.8,30.05,North,355,12.0,18.0,57,0.00,,SKC,0.01,VWS V14.00,2013-03-25 04:10:00,
2013-03-24 23:15:00,47.3,32.4,30.05,NNE,15,9.0,18.0,56,0.00,,SKC,0.01,VWS V14.00,2013-03-25 04:15:00,
2013-03-24 23:20:00,47.1,33.1,30.06,North,5,8.0,18.0,58,0.00,,SKC,0.01,VWS V14.00,2013-03-25 04:20:00,
2013-03-24 23:25:00,46.9,32.9,30.06,NW,304,15.0,18.0,58,0.00,,SKC,0.01,VWS V14.00,2013-03-25 04:25:00,
2013-03-24 23:30:00,46.7,32.7,30.06,North,11,5.0,20.0,58,0.00,,SKC,0.01,VWS V14.00,2013-03-25 04:30:00,
2013-03-24 23:35:00,46.6,33.0,30.07,NNE,18,6.0,20.0,59,0.00,,SKC,0.01,VWS V14.00,2013-03-25 04:35:00,
2013-03-24 23:40:00,46.4,32.4,30.07,North,351,9.0,20.0,58,0.00,,SKC,0.01,VWS V14.00,2013-03-25 04:40:00,
2013-03-24 23:45:00,46.4,32.4,30.07,NNE,22,12.0,20.0,58,0.00,,SKC,0.01,VWS V14.00,2013-03-25 04:45:00,
2013-03-24 23:50:00,46.4,32.0,30.07,North,9,6.0,20.0,57,0.00,,SKC,0.01,VWS V14.00,2013-03-25 04:50:00,
2013-03-24 23:55:00,46.3,31.9,30.07,NNE,20,13.0,20.0,57,0.00,,SKC,0.01,VWS V14.00,2013-03-25 04:55:00,